Time;durP1;ratioP1;P1;durP2;ratioP2;P2;SDS_P1;SDS_P2;PMS_P1;PMS_P2;Temp;Humidity;BMP_temperature;BMP_pressure;BME280_temperature;BME280_humidity;BME280_pressure;Samples;Min_cycle;Max_cycle;Signal;HPM_P1;HPM_P2
2022/03/26 00:01:04;;;;;;;0.60;0.43;;;7.80;99.90;;;;;;5091653;28;20667;-77
2022/03/26 00:03:31;;;;;;;0.50;0.40;;;7.80;99.90;;;;;;5093421;28;20203;-77
2022/03/26 00:05:59;;;;;;;0.50;0.40;;;7.80;99.90;;;;;;5093262;28;20189;-77
2022/03/26 00:08:26;;;;;;;0.50;0.40;;;7.70;99.90;;;;;;5092929;28;20193;-77
2022/03/26 00:10:53;;;;;;;0.50;0.40;;;7.80;99.90;;;;;;5091887;28;20220;-78
2022/03/26 00:13:20;;;;;;;0.50;0.50;;;7.80;99.90;;;;;;5093018;28;20251;-77
2022/03/26 00:15:47;;;;;;;0.50;0.40;;;7.80;99.90;;;;;;5092589;28;20609;-77
2022/03/26 00:18:15;;;;;;;27.98;6.85;;;7.80;99.90;;;;;;5092550;28;20690;-75
2022/03/26 00:20:42;;;;;;;0.50;0.40;;;7.90;99.90;;;;;;5091943;28;20201;-77
2022/03/26 00:23:10;;;;;;;0.60;0.40;;;7.90;99.90;;;;;;5092649;28;20593;-77
2022/03/26 00:25:37;;;;;;;0.50;0.40;;;7.80;99.90;;;;;;5092817;28;20570;-76
2022/03/26 00:28:04;;;;;;;0.50;0.40;;;7.80;99.90;;;;;;5092329;28;20194;-77
2022/03/26 00:30:32;;;;;;;0.50;0.40;;;7.80;99.90;;;;;;5090370;28;20197;-77
2022/03/26 00:32:58;;;;;;;0.50;0.40;;;7.70;99.90;;;;;;5092808;28;20221;-78
2022/03/26 00:35:25;;;;;;;0.50;0.40;;;7.70;99.90;;;;;;5092387;28;20624;-77
2022/03/26 00:37:53;;;;;;;0.50;0.40;;;7.70;99.90;;;;;;5092225;28;20602;-77
2022/03/26 00:40:21;;;;;;;0.60;0.60;;;7.70;99.90;;;;;;5091504;28;20201;-77
2022/03/26 00:42:48;;;;;;;0.50;0.50;;;7.70;99.90;;;;;;5092193;28;20213;-77
2022/03/26 00:45:15;;;;;;;0.50;0.40;;;7.60;99.90;;;;;;5091982;28;20198;-77
2022/03/26 00:47:42;;;;;;;0.50;0.40;;;7.50;99.90;;;;;;5092176;28;20200;-77
2022/03/26 00:50:10;;;;;;;0.50;0.40;;;7.40;99.90;;;;;;5089942;28;20675;-78
2022/03/26 00:52:37;;;;;;;0.50;0.43;;;7.30;99.90;;;;;;5091943;28;20586;-78
2022/03/26 00:55:05;;;;;;;1.60;1.50;;;7.30;99.90;;;;;;5092141;28;20229;-77
2022/03/26 00:57:33;;;;;;;0.50;0.40;;;7.20;99.90;;;;;;5092318;28;20197;-77
2022/03/26 01:00:00;;;;;;;0.50;0.40;;;7.20;99.90;;;;;;5091193;28;20193;-77
2022/03/26 01:02:27;;;;;;;0.50;0.40;;;7.10;99.90;;;;;;5091468;28;20222;-77
2022/03/26 01:04:53;;;;;;;0.50;0.40;;;7.00;99.90;;;;;;5091973;28;20193;-76
2022/03/26 01:07:20;;;;;;;0.50;0.40;;;7.00;99.90;;;;;;5091585;28;20726;-77
2022/03/26 01:09:47;;;;;;;1.45;1.35;;;7.00;99.90;;;;;;5091218;28;20189;-77
2022/03/26 01:12:14;;;;;;;0.50;0.40;;;7.00;99.90;;;;;;5091238;28;20713;-77
2022/03/26 01:14:42;;;;;;;0.50;0.40;;;7.00;99.90;;;;;;5091569;28;20228;-77
2022/03/26 01:17:08;;;;;;;4.07;3.65;;;7.10;99.90;;;;;;5091527;28;20201;-78
2022/03/26 01:19:35;;;;;;;0.50;0.40;;;7.10;99.90;;;;;;5090846;28;20733;-77
2022/03/26 01:22:02;;;;;;;0.60;0.40;;;7.00;99.90;;;;;;5091600;28;20628;-77
2022/03/26 01:24:29;;;;;;;1.05;1.05;;;6.90;99.90;;;;;;5091580;28;20247;-77
2022/03/26 01:26:57;;;;;;;0.50;0.40;;;6.80;99.90;;;;;;5091317;28;20685;-77
2022/03/26 01:29:23;;;;;;;0.50;0.40;;;6.80;99.90;;;;;;5089884;28;20200;-78
2022/03/26 01:31:52;;;;;;;0.50;0.40;;;6.70;99.90;;;;;;5091697;28;20224;-77
2022/03/26 01:34:19;;;;;;;2.08;1.98;;;6.60;99.90;;;;;;5091752;28;20193;-77
2022/03/26 01:36:46;;;;;;;0.50;0.40;;;6.60;99.90;;;;;;5091554;28;20197;-77
2022/03/26 01:39:13;;;;;;;0.50;0.40;;;6.60;99.90;;;;;;5090247;28;20220;-77
2022/03/26 01:41:39;;;;;;;0.50;0.40;;;6.60;99.90;;;;;;5091410;28;20221;-78
2022/03/26 01:44:11;;;;;;;0.52;0.50;;;6.60;99.90;;;;;;5091520;28;20536;-75
2022/03/26 01:46:48;;;;;;;0.50;0.40;;;6.60;99.90;;;;;;5091518;28;20617;-74
2022/03/26 01:49:17;;;;;;;0.50;0.43;;;6.60;99.90;;;;;;5090543;28;20200;-77
2022/03/26 01:51:44;;;;;;;0.50;0.40;;;6.60;99.90;;;;;;5091539;28;20309;-77
2022/03/26 01:54:12;;;;;;;0.60;0.60;;;6.60;99.90;;;;;;5090704;28;20234;-78
2022/03/26 01:56:39;;;;;;;0.50;0.40;;;6.60;99.90;;;;;;5091698;28;20204;-76
2022/03/26 01:59:07;;;;;;;0.50;0.40;;;6.70;99.90;;;;;;5090327;28;20225;-77
2022/03/26 02:01:34;;;;;;;0.50;0.50;;;6.70;99.90;;;;;;5090977;28;20258;-78
2022/03/26 02:04:01;;;;;;;0.50;0.40;;;6.70;99.90;;;;;;5092385;28;20198;-76
2022/03/26 02:06:31;;;;;;;0.50;0.40;;;6.70;99.90;;;;;;5091147;28;20678;-77
2022/03/26 02:08:59;;;;;;;0.50;0.40;;;6.60;99.90;;;;;;5090050;28;20580;-75
2022/03/26 02:11:26;;;;;;;0.50;0.40;;;6.60;99.90;;;;;;5091254;28;20209;-76
2022/03/26 02:13:55;;;;;;;14.15;9.10;;;6.60;99.90;;;;;;5091091;28;20194;-77
2022/03/26 02:16:22;;;;;;;1.23;1.20;;;6.60;99.90;;;;;;5091258;28;20196;-77
2022/03/26 02:18:49;;;;;;;0.80;0.80;;;6.70;99.90;;;;;;5090816;28;20220;-76
2022/03/26 02:21:18;;;;;;;2.97;2.88;;;6.70;99.90;;;;;;5090453;28;20220;-76
2022/03/26 02:23:47;;;;;;;0.50;0.40;;;6.60;99.90;;;;;;5091256;28;20200;-77
2022/03/26 02:26:16;;;;;;;0.50;0.40;;;6.60;99.90;;;;;;5090805;28;20193;-77
2022/03/26 02:28:44;;;;;;;0.77;0.50;;;6.60;99.90;;;;;;5094803;28;20681;-76
2022/03/26 02:31:11;;;;;;;0.50;0.40;;;6.50;99.90;;;;;;5093430;28;20209;-77
2022/03/26 02:33:37;;;;;;;0.50;0.40;;;6.50;99.90;;;;;;5094860;28;20197;-76
2022/03/26 02:36:05;;;;;;;0.50;0.40;;;6.40;99.90;;;;;;5094568;28;20197;-77
2022/03/26 02:38:33;;;;;;;21.63;20.27;;;6.40;99.90;;;;;;5094472;28;20725;-77
2022/03/26 02:41:00;;;;;;;0.60;0.50;;;6.40;99.90;;;;;;5093976;28;20221;-77
2022/03/26 02:43:27;;;;;;;0.73;0.73;;;6.40;99.90;;;;;;5094489;28;20193;-77
2022/03/26 02:45:54;;;;;;;0.50;0.40;;;6.50;99.90;;;;;;5094406;28;20570;-76
2022/03/26 02:48:20;;;;;;;0.50;0.40;;;6.50;99.90;;;;;;5094391;28;20209;-77
2022/03/26 02:50:47;;;;;;;1.73;1.63;;;6.50;99.90;;;;;;5093606;28;20205;-77
2022/03/26 02:53:14;;;;;;;0.50;0.40;;;6.50;99.90;;;;;;5094399;28;20197;-77
2022/03/26 02:55:42;;;;;;;0.50;0.40;;;6.50;99.90;;;;;;5094053;28;20401;-76
2022/03/26 02:58:10;;;;;;;0.50;0.40;;;6.50;99.90;;;;;;5094283;28;20194;-77
2022/03/26 03:00:37;;;;;;;0.50;0.40;;;6.40;99.90;;;;;;5093267;28;20232;-77
2022/03/26 03:03:06;;;;;;;0.50;0.40;;;6.40;99.90;;;;;;5094743;28;20231;-77
2022/03/26 03:05:33;;;;;;;0.50;0.50;;;6.30;99.90;;;;;;5093967;28;20197;-77
2022/03/26 03:08:01;;;;;;;0.50;0.40;;;6.30;99.90;;;;;;5093961;28;20552;-77
2022/03/26 03:10:28;;;;;;;0.50;0.45;;;6.30;99.90;;;;;;5093389;28;20235;-77
2022/03/26 03:12:56;;;;;;;0.50;0.40;;;6.30;99.90;;;;;;5094402;28;20197;-77
2022/03/26 03:15:23;;;;;;;0.50;0.40;;;6.20;99.90;;;;;;5093820;28;20204;-75
2022/03/26 03:17:51;;;;;;;0.50;0.50;;;6.20;99.90;;;;;;5093694;28;20243;-77
2022/03/26 03:20:19;;;;;;;0.50;0.40;;;6.20;99.90;;;;;;5093144;28;20220;-77
2022/03/26 03:22:46;;;;;;;0.50;0.40;;;6.20;99.90;;;;;;5093590;28;20252;-75
2022/03/26 03:25:13;;;;;;;0.57;0.40;;;6.20;99.90;;;;;;5093658;28;20342;-77
2022/03/26 03:27:40;;;;;;;0.50;0.40;;;6.10;99.90;;;;;;5093911;28;20293;-74
2022/03/26 03:30:11;;;;;;;0.50;0.40;;;6.10;99.90;;;;;;5091966;28;20684;-77
2022/03/26 03:32:38;;;;;;;0.50;0.40;;;6.00;99.90;;;;;;5093711;28;20248;-77
2022/03/26 03:35:06;;;;;;;0.50;0.40;;;6.00;99.90;;;;;;5093380;28;20204;-76
2022/03/26 03:37:36;;;;;;;0.55;0.40;;;5.90;99.90;;;;;;5092998;28;20228;-77
2022/03/26 03:40:04;;;;;;;0.50;0.40;;;5.90;99.90;;;;;;5092966;28;20201;-77
2022/03/26 03:42:31;;;;;;;2.33;2.22;;;5.90;99.90;;;;;;5093131;28;20216;-77
2022/03/26 03:44:57;;;;;;;0.50;0.40;;;5.80;99.90;;;;;;5093344;28;20197;-77
2022/03/26 03:47:25;;;;;;;0.50;0.40;;;5.80;99.90;;;;;;5093650;28;20203;-76
2022/03/26 03:49:52;;;;;;;6.38;2.25;;;5.80;99.90;;;;;;5092418;28;20193;-77
2022/03/26 03:52:19;;;;;;;0.50;0.40;;;5.80;99.90;;;;;;5093221;28;20210;-77
2022/03/26 03:54:46;;;;;;;0.50;0.40;;;5.80;99.90;;;;;;5093142;28;20307;-76
2022/03/26 03:57:13;;;;;;;0.50;0.40;;;5.80;99.90;;;;;;5093168;28;20207;-77
2022/03/26 03:59:41;;;;;;;0.50;0.40;;;5.70;99.90;;;;;;5092273;28;20217;-77
2022/03/26 04:02:09;;;;;;;0.50;0.40;;;5.70;99.90;;;;;;5092854;28;20255;-77
2022/03/26 04:04:38;;;;;;;0.50;0.40;;;5.70;99.90;;;;;;5093285;28;20197;-73
2022/03/26 04:07:05;;;;;;;0.50;0.40;;;5.70;99.90;;;;;;5092982;28;20225;-77
2022/03/26 04:09:32;;;;;;;0.50;0.40;;;5.70;99.90;;;;;;5092230;28;20204;-77
2022/03/26 04:11:58;;;;;;;0.50;0.40;;;5.60;99.90;;;;;;5092866;28;20710;-77
2022/03/26 04:14:25;;;;;;;0.52;0.45;;;5.60;99.90;;;;;;5092526;28;20201;-77
2022/03/26 04:16:52;;;;;;;0.50;0.40;;;5.60;99.90;;;;;;5092995;28;20673;-77
2022/03/26 04:19:19;;;;;;;0.50;0.40;;;5.70;99.90;;;;;;5091460;28;20248;-76
2022/03/26 04:21:47;;;;;;;5.10;4.82;;;5.70;99.90;;;;;;5092630;28;20248;-76
2022/03/26 04:24:14;;;;;;;0.60;0.40;;;5.80;99.90;;;;;;5092535;28;20200;-78
2022/03/26 04:26:41;;;;;;;0.50;0.40;;;5.80;99.90;;;;;;5092980;28;20207;-76
2022/03/26 04:29:08;;;;;;;0.50;0.40;;;5.80;99.90;;;;;;5090660;28;20235;-77
2022/03/26 04:31:35;;;;;;;0.50;0.40;;;5.80;99.90;;;;;;5092706;28;20221;-77
2022/03/26 04:34:02;;;;;;;0.50;0.40;;;5.80;99.90;;;;;;5092063;28;20189;-76
2022/03/26 04:36:29;;;;;;;0.50;0.40;;;5.70;99.90;;;;;;5092818;28;20224;-77
2022/03/26 04:38:57;;;;;;;0.50;0.40;;;5.60;99.90;;;;;;5091981;28;20209;-78
2022/03/26 04:41:24;;;;;;;0.50;0.40;;;5.60;99.90;;;;;;5091632;28;20213;-77
2022/03/26 04:43:51;;;;;;;0.50;0.50;;;5.60;99.90;;;;;;5092502;28;20200;-77
2022/03/26 04:46:18;;;;;;;0.50;0.40;;;5.60;99.90;;;;;;5092342;28;20196;-77
2022/03/26 04:48:45;;;;;;;0.50;0.40;;;5.60;99.90;;;;;;5091601;28;20673;-74
2022/03/26 04:51:12;;;;;;;0.50;0.40;;;5.50;99.90;;;;;;5091869;28;20246;-77
2022/03/26 04:53:39;;;;;;;0.60;0.60;;;5.50;99.90;;;;;;5092581;28;20196;-77
2022/03/26 04:56:08;;;;;;;0.50;0.40;;;5.40;99.90;;;;;;5091570;28;20225;-77
2022/03/26 04:58:34;;;;;;;1.95;1.83;;;5.40;99.90;;;;;;5092099;28;20200;-77
2022/03/26 05:01:01;;;;;;;0.50;0.40;;;5.40;99.90;;;;;;5090827;28;20662;-77
2022/03/26 05:03:28;;;;;;;0.50;0.40;;;5.40;99.90;;;;;;5091865;28;20194;-77
2022/03/26 05:05:55;;;;;;;0.50;0.40;;;5.50;99.90;;;;;;5091747;28;20222;-75
2022/03/26 05:08:21;;;;;;;0.50;0.40;;;5.40;99.90;;;;;;5091710;28;20196;-77
2022/03/26 05:10:48;;;;;;;0.50;0.40;;;5.40;99.90;;;;;;5090677;28;20196;-77
2022/03/26 05:13:16;;;;;;;0.50;0.40;;;5.30;99.90;;;;;;5092202;28;20208;-77
2022/03/26 05:15:43;;;;;;;0.50;0.40;;;5.30;99.90;;;;;;5091890;28;20201;-77
2022/03/26 05:18:10;;;;;;;0.50;0.40;;;5.30;99.90;;;;;;5091903;28;20604;-77
2022/03/26 05:20:36;;;;;;;0.50;0.40;;;5.20;99.90;;;;;;5090220;28;20207;-77
2022/03/26 05:23:04;;;;;;;0.50;0.40;;;5.30;99.90;;;;;;5091735;28;20197;-77
2022/03/26 05:25:31;;;;;;;0.50;0.40;;;5.30;99.90;;;;;;5091399;28;20258;-77
2022/03/26 05:27:58;;;;;;;0.88;0.88;;;5.40;99.90;;;;;;5091973;28;20201;-77
2022/03/26 05:30:26;;;;;;;0.50;0.40;;;5.40;99.90;;;;;;5089884;28;20193;-77
2022/03/26 05:32:53;;;;;;;0.50;0.50;;;5.60;99.90;;;;;;5091245;28;20240;-77
2022/03/26 05:35:19;;;;;;;0.50;0.40;;;5.60;99.90;;;;;;5091491;28;20193;-77
2022/03/26 05:37:47;;;;;;;0.50;0.40;;;5.60;99.90;;;;;;5091727;28;20563;-77
2022/03/26 05:40:21;;;;;;;2.00;1.25;;;5.70;99.90;;;;;;5090783;28;20582;-77
2022/03/26 05:42:49;;;;;;;0.50;0.40;;;5.70;99.90;;;;;;5091235;28;20217;-77
2022/03/26 05:45:16;;;;;;;0.50;0.40;;;5.80;99.90;;;;;;5091686;28;20200;-77
2022/03/26 05:47:44;;;;;;;0.50;0.43;;;5.90;99.90;;;;;;5091131;28;20220;-76
2022/03/26 05:50:12;;;;;;;0.60;0.60;;;6.00;99.90;;;;;;5090641;28;20677;-77
2022/03/26 05:52:41;;;;;;;0.50;0.40;;;6.10;99.90;;;;;;5091229;28;20312;-76
2022/03/26 05:55:09;;;;;;;0.50;0.40;;;6.30;99.90;;;;;;5091529;28;20205;-76
2022/03/26 05:57:35;;;;;;;0.50;0.40;;;6.50;99.90;;;;;;5091885;28;20204;-75
2022/03/26 06:00:03;;;;;;;0.50;0.40;;;6.80;99.90;;;;;;5090270;28;20209;-77
2022/03/26 06:02:30;;;;;;;0.50;0.40;;;7.10;99.90;;;;;;5094605;28;20224;-77
2022/03/26 06:04:58;;;;;;;0.50;0.40;;;7.40;99.90;;;;;;5095600;28;20570;-77
2022/03/26 06:07:25;;;;;;;0.50;0.40;;;7.70;99.90;;;;;;5095465;28;20254;-76
2022/03/26 06:09:51;;;;;;;0.50;0.40;;;7.90;99.90;;;;;;5094511;28;20189;-77
2022/03/26 06:12:18;;;;;;;0.52;0.40;;;8.10;99.90;;;;;;5095189;28;20217;-78
2022/03/26 06:14:45;;;;;;;0.50;0.40;;;8.20;99.90;;;;;;5095043;28;20193;-77
2022/03/26 06:17:12;;;;;;;0.50;0.50;;;8.30;99.90;;;;;;5095245;28;20197;-77
2022/03/26 06:19:39;;;;;;;0.50;0.40;;;8.40;99.90;;;;;;5094613;28;20209;-75
2022/03/26 06:22:07;;;;;;;0.60;0.40;;;8.50;99.90;;;;;;5095181;28;20642;-76
2022/03/26 06:24:34;;;;;;;1.33;1.23;;;8.60;99.90;;;;;;5094854;28;20292;-77
2022/03/26 06:27:02;;;;;;;3.40;3.28;;;8.80;99.90;;;;;;5094957;28;20207;-77
2022/03/26 06:29:29;;;;;;;0.50;0.40;;;9.10;99.90;;;;;;5092148;28;20200;-76
2022/03/26 06:31:55;;;;;;;1.15;1.08;;;9.50;99.90;;;;;;5094933;28;20214;-77
2022/03/26 06:34:24;;;;;;;0.50;0.40;;;9.90;99.90;;;;;;5094636;28;20194;-77
2022/03/26 06:36:50;;;;;;;5.18;2.25;;;10.20;99.90;;;;;;5094481;28;20196;-77
2022/03/26 06:39:19;;;;;;;0.50;0.40;;;10.70;99.90;;;;;;5093615;28;20208;-77
2022/03/26 06:41:45;;;;;;;0.50;0.40;;;11.30;99.90;;;;;;5094451;28;20211;-76
2022/03/26 06:44:12;;;;;;;0.50;0.50;;;12.00;99.90;;;;;;5094297;28;20192;-77
2022/03/26 06:46:40;;;;;;;1.00;1.00;;;13.00;99.90;;;;;;5094547;28;20204;-77
2022/03/26 06:49:08;;;;;;;0.50;0.40;;;13.80;99.90;;;;;;5093738;28;20540;-77
2022/03/26 06:51:35;;;;;;;0.50;0.40;;;14.40;99.90;;;;;;5093814;28;20710;-77
2022/03/26 06:54:02;;;;;;;0.50;0.40;;;15.20;99.90;;;;;;5094230;28;20207;-77
2022/03/26 06:56:30;;;;;;;0.50;0.40;;;15.90;99.90;;;;;;5094314;28;20216;-77
2022/03/26 06:58:57;;;;;;;0.70;0.67;;;16.80;99.90;;;;;;5093748;28;20847;-75
2022/03/26 07:01:24;;;;;;;0.50;0.30;;;17.50;96.30;;;;;;5093368;28;20479;-78
2022/03/26 07:03:50;;;;;;;1.37;0.60;;;18.10;93.20;;;;;;5094486;28;20808;-77
2022/03/26 07:06:19;;;;;;;0.50;0.30;;;18.50;88.70;;;;;;5094448;28;21057;-77
2022/03/26 07:08:46;;;;;;;1.23;1.10;;;18.20;85.00;;;;;;5093816;28;20821;-74
2022/03/26 07:11:13;;;;;;;5.10;4.90;;;18.70;85.20;;;;;;5093670;28;20985;-78
2022/03/26 07:13:41;;;;;;;0.50;0.30;;;19.50;83.80;;;;;;5093616;28;20435;-76
2022/03/26 07:16:08;;;;;;;0.50;0.30;;;20.00;77.70;;;;;;5094679;28;20950;-78
2022/03/26 07:18:35;;;;;;;0.50;0.30;;;20.20;74.50;;;;;;5093812;28;20442;-77
2022/03/26 07:21:02;;;;;;;4.37;1.80;;;20.40;73.20;;;;;;5092717;28;20489;-77
2022/03/26 07:23:29;;;;;;;0.50;0.30;;;20.50;70.20;;;;;;5093882;28;20808;-76
2022/03/26 07:25:56;;;;;;;0.60;0.50;;;20.40;70.50;;;;;;5093823;28;20450;-77
2022/03/26 07:28:22;;;;;;;0.60;0.40;;;20.30;68.90;;;;;;5093863;28;20842;-78
2022/03/26 07:30:50;;;;;;;0.50;0.30;;;20.70;68.40;;;;;;5091485;28;20436;-77
2022/03/26 07:33:17;;;;;;;0.60;0.60;;;20.90;67.80;;;;;;5093936;28;20485;-78
2022/03/26 07:35:44;;;;;;;0.50;0.30;;;21.10;66.50;;;;;;5093639;28;20473;-74
2022/03/26 07:38:11;;;;;;;0.60;0.50;;;21.20;65.70;;;;;;5093598;28;21004;-77
2022/03/26 07:40:38;;;;;;;0.50;0.30;;;21.50;64.50;;;;;;5092560;28;20494;-76
2022/03/26 07:43:07;;;;;;;0.50;0.40;;;21.80;65.60;;;;;;5093256;28;20443;-77
2022/03/26 07:45:34;;;;;;;1.23;1.23;;;22.70;63.40;;;;;;5092997;28;20518;-75
2022/03/26 07:48:02;;;;;;;0.60;0.57;;;23.10;61.10;;;;;;5093659;28;20435;-77
2022/03/26 07:50:29;;;;;;;0.50;0.30;;;22.60;60.40;;;;;;5092817;28;20437;-75
2022/03/26 07:52:56;;;;;;;9.40;3.03;;;22.60;60.90;;;;;;5093233;28;20462;-77
2022/03/26 07:55:22;;;;;;;0.50;0.30;;;22.80;59.60;;;;;;5092942;28;20786;-77
2022/03/26 07:57:49;;;;;;;0.50;0.40;;;23.40;59.40;;;;;;5093183;28;20436;-77
2022/03/26 08:00:17;;;;;;;3.80;1.57;;;23.50;58.80;;;;;;5092320;28;20478;-77
2022/03/26 08:02:44;;;;;;;0.50;0.50;;;24.10;57.50;;;;;;5092702;28;20553;-76
2022/03/26 08:05:12;;;;;;;0.50;0.30;;;24.10;57.70;;;;;;5111039;22;20515;-75
2022/03/26 08:07:39;;;;;;;2.40;2.30;;;24.60;56.50;;;;;;5047025;28;20487;-75
2022/03/26 08:10:06;;;;;;;0.50;0.40;;;24.80;55.80;;;;;;5052141;28;20470;-76
2022/03/26 08:12:33;;;;;;;0.50;0.30;;;25.30;55.90;;;;;;5052499;28;20440;-76
2022/03/26 08:15:00;;;;;;;1.83;1.73;;;26.00;54.10;;;;;;5052639;28;20469;-76
2022/03/26 08:17:29;;;;;;;0.50;0.40;;;26.70;54.30;;;;;;5053024;28;20938;-77
2022/03/26 08:19:55;;;;;;;1.03;1.03;;;27.20;55.10;;;;;;5051597;28;20433;-76
2022/03/26 08:22:23;;;;;;;0.60;0.50;;;28.20;53.50;;;;;;5052130;28;20441;-76
2022/03/26 08:24:50;;;;;;;0.50;0.30;;;28.60;51.40;;;;;;5052174;28;20476;-76
2022/03/26 08:27:17;;;;;;;0.50;0.30;;;28.50;49.10;;;;;;5054557;28;20440;-78
2022/03/26 08:29:44;;;;;;;0.50;0.50;;;28.70;49.50;;;;;;5050402;28;20506;-71
2022/03/26 08:32:10;;;;;;;1.00;1.00;;;29.20;47.50;;;;;;5052322;28;20540;-76
2022/03/26 08:34:37;;;;;;;3.03;2.30;;;29.10;47.00;;;;;;5052200;28;20862;-73
2022/03/26 08:37:04;;;;;;;0.50;0.30;;;28.80;47.30;;;;;;5052049;28;20491;-76
2022/03/26 08:39:32;;;;;;;2.63;1.13;;;28.70;47.30;;;;;;5051229;28;20444;-76
2022/03/26 08:41:59;;;;;;;0.50;0.30;;;28.60;48.10;;;;;;5052107;28;20468;-77
2022/03/26 08:44:26;;;;;;;0.50;0.30;;;29.40;48.00;;;;;;5052229;28;20464;-76
2022/03/26 08:46:52;;;;;;;2.20;2.10;;;30.10;47.20;;;;;;5052392;28;20811;-76
2022/03/26 08:49:19;;;;;;;1.07;1.07;;;30.10;46.30;;;;;;5051353;28;20456;-76
2022/03/26 08:51:46;;;;;;;0.50;0.30;;;30.60;47.10;;;;;;5051852;28;20947;-76
2022/03/26 08:54:13;;;;;;;0.50;0.30;;;31.30;46.90;;;;;;5051446;28;20465;-76
2022/03/26 08:56:41;;;;;;;0.50;0.30;;;31.40;44.50;;;;;;5051892;28;20799;-73
2022/03/26 08:59:07;;;;;;;0.50;0.30;;;31.90;44.00;;;;;;5050942;28;20445;-76
2022/03/26 09:01:34;;;;;;;0.50;0.30;;;32.20;43.30;;;;;;5051826;28;20476;-76
2022/03/26 09:04:01;;;;;;;0.50;0.30;;;32.20;43.00;;;;;;5051554;28;20449;-78
2022/03/26 09:06:28;;;;;;;0.50;0.30;;;31.80;43.60;;;;;;5052283;28;20475;-76
2022/03/26 09:08:55;;;;;;;0.50;0.40;;;31.90;44.70;;;;;;5050977;28;20433;-76
2022/03/26 09:11:21;;;;;;;0.83;0.83;;;32.50;43.40;;;;;;5052435;28;20445;-76
2022/03/26 09:13:49;;;;;;;1.80;1.70;;;32.60;43.10;;;;;;5051859;28;20436;-76
2022/03/26 09:16:17;;;;;;;0.50;0.30;;;32.70;43.70;;;;;;5051524;28;20444;-77
2022/03/26 09:18:43;;;;;;;0.50;0.30;;;32.40;42.20;;;;;;5051355;28;20469;-72
2022/03/26 09:21:11;;;;;;;0.50;0.30;;;32.80;43.00;;;;;;5050972;28;20819;-75
2022/03/26 09:23:38;;;;;;;0.83;0.63;;;33.40;42.60;;;;;;5051748;28;20421;-74
2022/03/26 09:26:05;;;;;;;0.60;0.40;;;33.30;42.90;;;;;;5051282;28;20942;-77
2022/03/26 09:28:31;;;;;;;0.63;0.57;;;33.50;42.70;;;;;;5051474;28;20502;-77
2022/03/26 09:30:59;;;;;;;0.50;0.30;;;33.70;40.50;;;;;;5049882;28;20437;-75
2022/03/26 09:33:26;;;;;;;1.13;1.03;;;33.40;40.20;;;;;;5051220;28;20927;-76
2022/03/26 09:35:53;;;;;;;0.80;0.80;;;33.90;41.10;;;;;;5051042;28;20460;-76
2022/03/26 09:38:20;;;;;;;3.03;2.33;;;33.40;40.20;;;;;;5051039;28;20444;-76
2022/03/26 09:40:47;;;;;;;1.57;1.13;;;32.80;40.20;;;;;;5050229;28;20472;-72
2022/03/26 09:43:15;;;;;;;0.50;0.30;;;32.90;41.40;;;;;;5050803;28;20448;-77
2022/03/26 09:45:42;;;;;;;0.97;0.97;;;32.40;41.30;;;;;;5051639;28;20469;-77
2022/03/26 09:48:10;;;;;;;0.50;0.30;;;32.20;42.30;;;;;;5051320;28;20444;-77
2022/03/26 09:50:42;;;;;;;0.60;0.40;;;32.10;42.80;;;;;;5050152;28;20441;-78
2022/03/26 09:53:12;;;;;;;0.60;0.60;;;33.10;41.80;;;;;;5051398;28;20475;-78
2022/03/26 09:55:40;;;;;;;0.50;0.30;;;33.60;42.50;;;;;;5050952;28;21016;-73
2022/03/26 09:58:07;;;;;;;0.50;0.30;;;34.40;42.10;;;;;;5051265;28;20445;-78
2022/03/26 10:00:33;;;;;;;1.00;1.00;;;34.40;40.00;;;;;;5050327;28;20472;-77
2022/03/26 10:03:00;;;;;;;0.50;0.30;;;33.90;40.60;;;;;;5050889;28;20480;-76
2022/03/26 10:05:35;;;;;;;0.50;0.40;;;34.00;42.60;;;;;;5050755;28;20461;-78
2022/03/26 10:08:17;;;;;;;0.50;0.40;;;34.20;41.00;;;;;;5051308;28;20490;-77
2022/03/26 10:10:45;;;;;;;2.10;2.00;;;34.30;41.00;;;;;;5050446;28;20487;-76
2022/03/26 10:13:12;;;;;;;2.63;1.43;;;33.80;39.30;;;;;;5050919;28;20469;-76
2022/03/26 10:16:04;;;;;;;2.93;1.60;;;33.50;40.40;;;;;;5050973;28;20464;-75
2022/03/26 10:18:39;;;;;;;1.53;1.23;;;31.60;40.70;;;;;;5050696;28;20907;-76
2022/03/26 10:21:08;;;;;;;0.50;0.30;;;30.30;42.20;;;;;;5049710;28;20997;-76
2022/03/26 10:23:36;;;;;;;0.97;0.83;;;30.50;42.20;;;;;;5050909;28;20433;-76
2022/03/26 10:26:10;;;;;;;0.50;0.40;;;30.80;41.60;;;;;;5050713;28;20798;-78
2022/03/26 10:28:38;;;;;;;1.23;0.60;;;31.60;41.10;;;;;;5050536;28;20938;-76
2022/03/26 10:34:08;;;;;;;0.50;0.30;;;31.20;40.30;;;;;;5050442;28;20440;-76
2022/03/26 10:36:37;;;;;;;0.50;0.40;;;30.40;41.40;;;;;;5050615;28;20982;-77
2022/03/26 10:39:05;;;;;;;0.50;0.30;;;30.40;44.30;;;;;;5049893;28;20444;-79
2022/03/26 10:41:34;;;;;;;0.63;0.63;;;31.00;42.00;;;;;;5050455;28;20504;-77
2022/03/26 10:44:13;;;;;;;0.50;0.40;;;31.90;42.80;;;;;;5050851;28;20464;-77
2022/03/26 10:46:51;;;;;;;1.17;1.07;;;31.70;40.70;;;;;;5050627;28;20433;-77
2022/03/26 10:49:27;;;;;;;1.33;1.30;;;31.70;40.70;;;;;;5053332;28;20417;-76
2022/03/26 10:51:54;;;;;;;0.50;0.30;;;30.90;40.60;;;;;;5054072;28;20927;-76
2022/03/26 10:54:28;;;;;;;0.50;0.30;;;30.10;42.20;;;;;;5053655;28;20975;-76
2022/03/26 10:56:57;;;;;;;2.30;2.20;;;30.30;42.20;;;;;;5053678;28;20432;-77
2022/03/26 10:59:24;;;;;;;0.50;0.30;;;30.60;42.60;;;;;;5053400;28;20452;-77
2022/03/26 11:01:52;;;;;;;2.20;2.10;;;31.00;43.00;;;;;;5053906;28;20484;-76
2022/03/26 11:04:19;;;;;;;1.30;1.30;;;31.20;42.10;;;;;;5053746;28;20480;-75
2022/03/26 11:06:48;;;;;;;0.60;0.60;;;29.00;42.40;;;;;;5054165;28;20421;-75
2022/03/26 11:09:16;;;;;;;0.50;0.30;;;29.20;44.30;;;;;;5052786;28;20950;-76
2022/03/26 11:11:45;;;;;;;1.30;0.80;;;29.90;45.00;;;;;;5053898;28;20955;-76
2022/03/26 11:14:15;;;;;;;0.70;0.40;;;30.70;42.40;;;;;;5053682;28;20974;-77
2022/03/26 11:17:02;;;;;;;0.50;0.33;;;30.60;42.00;;;;;;5053821;28;20460;-71
2022/03/26 11:19:38;;;;;;;0.50;0.30;;;30.50;42.20;;;;;;5053432;28;20448;-76
2022/03/26 11:22:28;;;;;;;0.70;0.70;;;30.60;42.50;;;;;;5053911;28;20464;-76
2022/03/26 11:25:06;;;;;;;0.50;0.30;;;30.60;43.40;;;;;;5053169;28;20472;-76
2022/03/26 11:27:50;;;;;;;0.50;0.30;;;30.10;43.00;;;;;;5053379;28;20449;-76
2022/03/26 11:30:20;;;;;;;3.60;0.60;;;30.30;43.60;;;;;;5052093;28;20440;-77
2022/03/26 11:32:52;;;;;;;1.73;1.07;;;30.70;42.80;;;;;;5053152;28;20428;-77
2022/03/26 11:35:20;;;;;;;0.50;0.30;;;31.00;43.70;;;;;;5053766;28;20908;-76
2022/03/26 11:37:54;;;;;;;0.90;0.63;;;31.00;42.90;;;;;;5053149;28;20448;-76
2022/03/26 11:40:44;;;;;;;0.50;0.30;;;31.10;41.50;;;;;;5052748;28;20432;-76
2022/03/26 11:43:11;;;;;;;0.50;0.30;;;31.70;41.50;;;;;;5052807;28;20437;-76
2022/03/26 11:51:23;;;;;;;0.50;0.40;;;30.80;40.50;;;;;;5052841;28;20528;-75
2022/03/26 11:53:56;;;;;;;0.97;0.40;;;29.90;41.30;;;;;;5052839;28;20444;-75
2022/03/26 11:56:24;;;;;;;0.70;0.60;;;29.50;42.10;;;;;;5053503;28;20421;-76
2022/03/26 11:59:05;;;;;;;0.50;0.30;;;29.30;43.70;;;;;;5051663;28;20445;-75
2022/03/26 12:01:36;;;;;;;0.50;0.30;;;29.90;42.70;;;;;;5052733;28;20457;-74
2022/03/26 12:04:11;;;;;;;0.50;0.50;;;29.80;43.50;;;;;;5052709;28;20894;-76
2022/03/26 12:06:47;;;;;;;0.50;0.30;;;30.40;43.40;;;;;;5053147;28;20421;-77
2022/03/26 12:09:29;;;;;;;0.50;0.30;;;31.10;42.00;;;;;;5051645;28;20444;-76
2022/03/26 12:12:16;;;;;;;0.50;0.40;;;31.10;40.30;;;;;;5052398;28;20424;-77
2022/03/26 12:15:20;;;;;;;0.50;0.30;;;31.30;41.10;;;;;;5052427;28;20782;-76
2022/03/26 12:17:49;;;;;;;0.50;0.30;;;30.60;41.40;;;;;;5052743;28;20437;-76
2022/03/26 12:20:22;;;;;;;0.50;0.30;;;30.60;42.80;;;;;;5051391;28;20444;-76
2022/03/26 12:22:50;;;;;;;0.70;0.60;;;30.90;41.80;;;;;;5051827;28;20472;-76
2022/03/26 12:25:17;;;;;;;0.70;0.60;;;31.20;40.90;;;;;;5052024;28;20489;-75
2022/03/26 12:27:44;;;;;;;0.50;0.40;;;31.00;40.50;;;;;;5052465;28;20452;-75
2022/03/26 12:30:14;;;;;;;0.50;0.30;;;30.70;40.80;;;;;;5049722;28;20451;-76
2022/03/26 12:32:42;;;;;;;0.50;0.30;;;30.10;41.40;;;;;;5052247;28;20614;-76
2022/03/26 12:35:10;;;;;;;0.60;0.60;;;30.20;41.70;;;;;;5051586;28;20521;-76
2022/03/26 12:37:38;;;;;;;1.83;1.40;;;29.60;41.20;;;;;;5051962;28;20491;-76
2022/03/26 12:40:07;;;;;;;0.80;0.80;;;30.10;41.80;;;;;;5051218;28;20957;-76
2022/03/26 12:42:35;;;;;;;0.50;0.30;;;30.00;41.80;;;;;;5052502;28;20547;-77
2022/03/26 12:45:01;;;;;;;0.50;0.40;;;29.70;43.00;;;;;;5051813;28;20463;-78
2022/03/26 12:47:28;;;;;;;0.50;0.30;;;30.30;42.70;;;;;;5052208;28;20449;-77
2022/03/26 12:49:57;;;;;;;0.50;0.30;;;31.10;42.30;;;;;;5050918;28;20947;-76
2022/03/26 12:52:26;;;;;;;0.50;0.30;;;30.40;40.60;;;;;;5051623;28;20931;-76
2022/03/26 12:54:55;;;;;;;0.50;0.30;;;30.30;41.90;;;;;;5052037;28;20488;-76
2022/03/26 12:57:22;;;;;;;0.50;0.30;;;30.70;42.10;;;;;;5051680;28;20449;-76
2022/03/26 12:59:51;;;;;;;0.50;0.30;;;30.60;40.60;;;;;;5051168;28;20441;-76
2022/03/26 13:02:20;;;;;;;0.67;0.60;;;29.50;41.40;;;;;;5051775;28;20465;-76
2022/03/26 13:04:51;;;;;;;0.50;0.40;;;28.10;42.80;;;;;;5051349;28;20469;-76
2022/03/26 13:07:18;;;;;;;0.50;0.30;;;27.50;44.10;;;;;;5051613;28;20440;-76